Time;durP1;ratioP1;P1;durP2;ratioP2;P2;SDS_P1;SDS_P2;PMS_P1;PMS_P2;Temp;Humidity;BMP_temperature;BMP_pressure;BME280_temperature;BME280_humidity;BME280_pressure;Samples;Min_cycle;Max_cycle;Signal;HPM_P1;HPM_P2
2023/09/12 00:01:35;;;;;;;35.63;27.70;;;;;;;;;;10443209;28;20036;-83
2023/09/12 00:06:36;;;;;;;30.38;22.30;;;;;;;;;;10444196;28;20033;-82
2023/09/12 00:11:37;;;;;;;28.17;19.85;;;;;;;;;;10442358;28;20380;-82
2023/09/12 00:16:38;;;;;;;33.28;22.52;;;;;;;;;;10439534;28;20033;-83
2023/09/12 00:21:39;;;;;;;32.28;24.65;;;;;;;;;;10443433;28;20086;-82
2023/09/12 00:26:40;;;;;;;28.52;20.92;;;;;;;;;;10443537;28;20055;-83
2023/09/12 00:31:41;;;;;;;44.65;31.15;;;;;;;;;;10442006;28;20108;-83
2023/09/12 00:36:42;;;;;;;25.90;20.23;;;;;;;;;;10443651;28;20468;-82
2023/09/12 00:41:43;;;;;;;34.47;26.30;;;;;;;;;;10443126;28;20079;-83
2023/09/12 00:46:45;;;;;;;32.17;22.63;;;;;;;;;;10442939;28;20040;-84
2023/09/12 00:51:46;;;;;;;33.72;26.02;;;;;;;;;;10443278;28;20098;-82
2023/09/12 00:56:47;;;;;;;34.42;26.20;;;;;;;;;;10442944;28;20488;-85
2023/09/12 01:01:49;;;;;;;34.88;26.75;;;;;;;;;;10441499;28;20041;-85
2023/09/12 01:06:50;;;;;;;35.83;26.95;;;;;;;;;;10442618;28;20035;-83
2023/09/12 01:11:51;;;;;;;35.50;25.88;;;;;;;;;;10443355;28;20036;-83
2023/09/12 01:16:52;;;;;;;37.05;25.50;;;;;;;;;;10449651;28;20069;-83
2023/09/12 01:22:11;;;;;;;38.90;28.02;;;;;;;;;;10451335;28;20025;-85
2023/09/12 01:27:22;;;;;;;36.72;25.65;;;;;;;;;;10438975;28;20140;-83
2023/09/12 01:32:24;;;;;;;33.75;25.20;;;;;;;;;;10449873;28;20442;-85
2023/09/12 01:37:26;;;;;;;43.95;29.48;;;;;;;;;;10450191;28;20040;-86
2023/09/12 01:42:30;;;;;;;37.38;28.27;;;;;;;;;;10449657;28;20476;-84
2023/09/12 01:47:32;;;;;;;42.22;30.65;;;;;;;;;;10448491;28;20029;-83
2023/09/12 01:52:33;;;;;;;42.15;31.52;;;;;;;;;;10450277;28;20098;-85
2023/09/12 01:57:34;;;;;;;40.20;29.67;;;;;;;;;;10449002;28;20033;-83
2023/09/12 02:02:35;;;;;;;30.13;23.13;;;;;;;;;;10448927;28;20025;-83
2023/09/12 02:07:38;;;;;;;42.15;30.73;;;;;;;;;;10436508;28;20039;-86
2023/09/12 02:12:39;;;;;;;32.13;21.30;;;;;;;;;;10448667;28;20033;-83
2023/09/12 02:17:40;;;;;;;39.85;28.35;;;;;;;;;;10447274;28;20063;-86
2023/09/12 02:22:41;;;;;;;36.30;26.90;;;;;;;;;;10448269;28;20040;-84
2023/09/12 02:27:42;;;;;;;36.78;27.75;;;;;;;;;;10446813;28;20017;-82
2023/09/12 02:32:43;;;;;;;30.50;22.08;;;;;;;;;;10447494;28;20707;-83
2023/09/12 02:37:44;;;;;;;40.95;27.45;;;;;;;;;;10447270;28;20044;-85
2023/09/12 02:42:45;;;;;;;41.67;29.20;;;;;;;;;;10446537;28;20112;-86
2023/09/12 02:47:46;;;;;;;31.45;23.92;;;;;;;;;;10444500;28;20727;-82
2023/09/12 02:52:48;;;;;;;37.75;27.85;;;;;;;;;;10447687;28;20033;-82
2023/09/12 02:57:49;;;;;;;26.80;19.67;;;;;;;;;;10446380;28;20059;-84
2023/09/12 03:02:49;;;;;;;27.13;19.98;;;;;;;;;;10445951;28;20039;-83
2023/09/12 03:07:50;;;;;;;28.60;21.05;;;;;;;;;;10447323;28;20397;-85
2023/09/12 03:12:51;;;;;;;43.22;28.50;;;;;;;;;;10447078;28;20087;-80
2023/09/12 03:17:52;;;;;;;42.05;31.65;;;;;;;;;;10445510;28;20045;-83
2023/09/12 03:22:53;;;;;;;37.40;28.27;;;;;;;;;;10443137;28;20082;-83
2023/09/12 03:27:54;;;;;;;35.17;25.13;;;;;;;;;;10444585;28;20476;-84
2023/09/12 03:32:55;;;;;;;31.42;24.83;;;;;;;;;;10446072;28;20484;-86
2023/09/12 03:37:56;;;;;;;39.40;29.88;;;;;;;;;;10432801;28;20049;-84
2023/09/12 03:42:57;;;;;;;38.42;27.70;;;;;;;;;;10444567;28;20028;-81
2023/09/12 03:47:58;;;;;;;43.30;31.15;;;;;;;;;;10442906;28;20043;-80
2023/09/12 03:52:59;;;;;;;43.80;30.60;;;;;;;;;;10445221;28;20044;-83
2023/09/12 03:58:00;;;;;;;44.63;30.90;;;;;;;;;;10444199;28;20033;-87
2023/09/12 04:03:01;;;;;;;43.35;30.83;;;;;;;;;;10444863;28;20492;-82
2023/09/12 04:08:02;;;;;;;46.03;31.98;;;;;;;;;;10441824;28;20032;-84
2023/09/12 04:13:04;;;;;;;40.33;29.70;;;;;;;;;;10442102;28;20091;-83
2023/09/12 04:18:05;;;;;;;45.03;33.38;;;;;;;;;;10444411;28;20384;-85
2023/09/12 04:23:06;;;;;;;39.88;30.05;;;;;;;;;;10443851;28;20079;-83
2023/09/12 04:28:07;;;;;;;37.10;28.15;;;;;;;;;;10443202;28;20051;-83
2023/09/12 04:33:08;;;;;;;43.17;31.38;;;;;;;;;;10442329;28;20085;-83
2023/09/12 04:38:09;;;;;;;47.53;32.45;;;;;;;;;;10441493;28;20041;-83
2023/09/12 04:43:10;;;;;;;51.80;36.50;;;;;;;;;;10430697;28;20032;-83
2023/09/12 04:48:11;;;;;;;43.00;31.65;;;;;;;;;;10444196;28;20362;-83
2023/09/12 04:53:12;;;;;;;58.55;39.33;;;;;;;;;;10443492;28;20082;-82
2023/09/12 04:58:13;;;;;;;54.28;36.75;;;;;;;;;;10442671;28;20124;-84
2023/09/12 05:03:14;;;;;;;48.38;35.78;;;;;;;;;;10441902;28;20025;-83
2023/09/12 05:08:15;;;;;;;52.85;36.90;;;;;;;;;;10441808;28;20024;-84
2023/09/12 05:13:17;;;;;;;42.13;32.65;;;;;;;;;;10439403;28;20086;-82
2023/09/12 05:18:18;;;;;;;49.92;36.72;;;;;;;;;;10437931;28;20048;-82
2023/09/12 05:23:19;;;;;;;45.97;34.70;;;;;;;;;;10442273;28;20052;-83
2023/09/12 05:28:20;;;;;;;52.63;39.00;;;;;;;;;;10443172;28;20051;-83
2023/09/12 05:33:21;;;;;;;48.38;35.28;;;;;;;;;;10443406;28;20037;-83
2023/09/12 05:38:22;;;;;;;48.03;37.55;;;;;;;;;;10442185;28;20041;-82
2023/09/12 05:43:23;;;;;;;56.72;42.33;;;;;;;;;;10435043;28;20037;-80
2023/09/12 05:48:24;;;;;;;55.70;38.63;;;;;;;;;;10435240;28;20086;-84
2023/09/12 05:53:25;;;;;;;54.90;40.63;;;;;;;;;;10440430;28;20111;-86
2023/09/12 05:58:27;;;;;;;57.88;40.72;;;;;;;;;;10439938;28;20041;-81
2023/09/12 06:03:28;;;;;;;61.53;43.70;;;;;;;;;;10447104;28;20396;-81
2023/09/12 06:08:29;;;;;;;58.70;43.08;;;;;;;;;;10448794;28;20091;-82
2023/09/12 06:13:32;;;;;;;59.15;43.40;;;;;;;;;;10443970;28;20117;-82
2023/09/12 06:18:34;;;;;;;58.08;42.95;;;;;;;;;;10436596;28;20393;-83
2023/09/12 06:23:35;;;;;;;57.42;41.38;;;;;;;;;;10438117;28;20053;-82
2023/09/12 06:28:36;;;;;;;55.15;42.47;;;;;;;;;;10437321;28;20358;-84
2023/09/12 06:33:38;;;;;;;55.92;39.78;;;;;;;;;;10447533;28;20033;-80
2023/09/12 06:38:39;;;;;;;55.55;40.30;;;;;;;;;;10442581;28;20463;-81
2023/09/12 06:43:40;;;;;;;50.88;38.83;;;;;;;;;;10447492;28;20028;-80
2023/09/12 06:48:41;;;;;;;54.00;39.97;;;;;;;;;;10445474;28;20044;-82
2023/09/12 06:53:42;;;;;;;47.75;37.33;;;;;;;;;;10434631;28;20052;-84
2023/09/12 06:58:43;;;;;;;47.55;35.80;;;;;;;;;;10447499;28;20162;-82
2023/09/12 07:03:44;;;;;;;43.80;34.85;;;;;;;;;;10440353;28;20510;-82
2023/09/12 07:08:45;;;;;;;45.20;32.08;;;;;;;;;;10423201;28;20029;-84
2023/09/12 07:13:46;;;;;;;42.13;31.98;;;;;;;;;;10431204;28;20027;-82
2023/09/12 07:18:49;;;;;;;40.40;29.15;;;;;;;;;;10421312;28;20094;-82
2023/09/12 07:23:50;;;;;;;38.00;27.90;;;;;;;;;;10430311;28;20095;-83
2023/09/12 07:28:51;;;;;;;36.90;26.70;;;;;;;;;;10415598;28;20067;-84
2023/09/12 07:33:52;;;;;;;34.97;24.80;;;;;;;;;;10419616;28;20029;-82
2023/09/12 07:38:53;;;;;;;31.13;23.42;;;;;;;;;;10418316;28;20477;-84
2023/09/12 07:43:54;;;;;;;30.15;21.23;;;;;;;;;;10438089;28;20033;-82
2023/09/12 07:48:55;;;;;;;29.02;20.73;;;;;;;;;;10441739;28;20033;-81
2023/09/12 07:53:56;;;;;;;26.42;20.60;;;;;;;;;;10444723;28;20055;-82
2023/09/12 07:58:58;;;;;;;26.67;20.65;;;;;;;;;;10437330;28;20520;-82
2023/09/12 08:03:59;;;;;;;26.13;19.20;;;;;;;;;;10436979;28;20472;-82
2023/09/12 08:09:00;;;;;;;29.55;19.50;;;;;;;;;;10444135;28;20108;-83
2023/09/12 08:14:01;;;;;;;25.08;18.35;;;;;;;;;;10441681;28;20033;-82
2023/09/12 08:19:02;;;;;;;24.42;18.45;;;;;;;;;;10444849;28;20059;-82
2023/09/12 08:24:03;;;;;;;24.45;17.58;;;;;;;;;;10441282;28;20057;-82
2023/09/12 08:29:05;;;;;;;26.45;18.58;;;;;;;;;;10442057;28;20107;-83
2023/09/12 08:34:06;;;;;;;26.50;18.95;;;;;;;;;;10437038;28;20029;-82
2023/09/12 08:39:08;;;;;;;23.05;17.08;;;;;;;;;;10443430;28;20078;-81
2023/09/12 08:44:09;;;;;;;23.40;16.88;;;;;;;;;;10443237;28;20068;-81
2023/09/12 08:49:11;;;;;;;20.75;14.68;;;;;;;;;;10445041;28;20040;-82
2023/09/12 08:54:12;;;;;;;16.98;13.70;;;;;;;;;;10439398;28;20083;-85
2023/09/12 08:59:13;;;;;;;18.45;13.55;;;;;;;;;;10443245;28;20137;-82
2023/09/12 09:04:15;;;;;;;21.02;15.13;;;;;;;;;;10432420;28;20455;-81
2023/09/12 09:09:16;;;;;;;19.33;15.15;;;;;;;;;;10434435;28;20416;-84
2023/09/12 09:14:39;;;;;;;21.02;14.65;;;;;;;;;;10431289;28;20519;-83
2023/09/12 09:19:44;;;;;;;19.92;14.05;;;;;;;;;;10435163;28;20025;-85
2023/09/12 09:24:46;;;;;;;19.98;14.02;;;;;;;;;;10439366;28;20056;-83
2023/09/12 09:29:48;;;;;;;22.10;13.68;;;;;;;;;;10441540;28;20033;-86
2023/09/12 09:34:49;;;;;;;16.92;11.43;;;;;;;;;;10444519;28;20484;-82
2023/09/12 09:39:52;;;;;;;14.80;10.35;;;;;;;;;;10448549;28;20033;-85
2023/09/12 09:44:53;;;;;;;14.23;10.73;;;;;;;;;;10446151;28;20047;-84
2023/09/12 09:49:54;;;;;;;15.35;9.73;;;;;;;;;;10447086;28;20033;-82
2023/09/12 09:54:55;;;;;;;12.02;9.75;;;;;;;;;;10445693;28;20049;-84
2023/09/12 09:59:56;;;;;;;16.65;10.45;;;;;;;;;;10439689;28;20025;-83
2023/09/12 10:04:58;;;;;;;16.08;10.68;;;;;;;;;;10447821;28;20033;-82
2023/09/12 10:10:03;;;;;;;15.95;10.20;;;;;;;;;;10451154;28;20025;-83
2023/09/12 10:15:04;;;;;;;16.55;11.10;;;;;;;;;;10445446;28;20083;-84
2023/09/12 10:20:11;;;;;;;15.70;10.85;;;;;;;;;;10434398;28;20075;-83
2023/09/12 10:25:13;;;;;;;16.85;10.48;;;;;;;;;;10432606;28;20115;-85
2023/09/12 10:30:14;;;;;;;13.52;10.25;;;;;;;;;;10451332;28;20031;-83
2023/09/12 10:35:15;;;;;;;11.38;9.70;;;;;;;;;;10445485;28;20044;-86
2023/09/12 10:40:17;;;;;;;12.93;9.85;;;;;;;;;;10445458;28;20032;-84
2023/09/12 10:45:18;;;;;;;14.65;10.35;;;;;;;;;;10444679;28;20037;-86
2023/09/12 10:50:20;;;;;;;15.30;10.52;;;;;;;;;;10446467;28;20035;-85
2023/09/12 10:55:21;;;;;;;14.57;10.20;;;;;;;;;;10440619;28;20686;-84
2023/09/12 11:00:22;;;;;;;13.60;9.70;;;;;;;;;;10440081;28;20025;-83
2023/09/12 11:05:26;;;;;;;14.43;11.40;;;;;;;;;;10446604;28;20641;-85
2023/09/12 11:10:28;;;;;;;13.07;11.00;;;;;;;;;;10436856;28;20021;-83
2023/09/12 11:15:31;;;;;;;14.73;10.20;;;;;;;;;;10437428;28;20037;-84
2023/09/12 11:20:52;;;;;;;14.27;10.77;;;;;;;;;;10431736;28;20044;-85
2023/09/12 11:26:05;;;;;;;16.73;10.90;;;;;;;;;;10428549;28;20154;-85
2023/09/12 11:31:06;;;;;;;11.88;9.35;;;;;;;;;;10438206;28;20029;-84
2023/09/12 11:36:13;;;;;;;15.75;9.85;;;;;;;;;;10441577;28;20037;-85
2023/09/12 11:41:14;;;;;;;10.65;8.48;;;;;;;;;;10433099;28;20112;-83
2023/09/12 11:46:15;;;;;;;13.18;8.90;;;;;;;;;;10429058;28;20678;-84
2023/09/12 11:51:16;;;;;;;12.43;9.50;;;;;;;;;;10423681;28;20055;-83
2023/09/12 11:56:17;;;;;;;12.20;9.13;;;;;;;;;;10424229;28;20155;-82
2023/09/12 12:01:18;;;;;;;15.00;9.55;;;;;;;;;;10427922;28;20528;-85
2023/09/12 12:06:20;;;;;;;16.00;9.38;;;;;;;;;;10440225;28;20041;-84
2023/09/12 12:11:32;;;;;;;11.77;8.75;;;;;;;;;;10438194;28;20041;-84
2023/09/12 12:16:34;;;;;;;12.25;8.25;;;;;;;;;;10421699;28;20422;-83
2023/09/12 12:21:36;;;;;;;11.68;8.85;;;;;;;;;;10420659;28;20496;-82
2023/09/12 12:26:37;;;;;;;11.00;8.35;;;;;;;;;;10420409;28;20044;-86
2023/09/12 12:31:38;;;;;;;12.23;8.75;;;;;;;;;;10429271;28;20049;-83
2023/09/12 12:36:43;;;;;;;13.35;8.65;;;;;;;;;;10432081;28;20045;-84
2023/09/12 12:41:44;;;;;;;12.75;8.35;;;;;;;;;;10444391;28;20036;-85
2023/09/12 12:46:52;;;;;;;9.85;7.97;;;;;;;;;;10437648;28;20021;-83
2023/09/12 12:51:55;;;;;;;11.02;7.32;;;;;;;;;;10447658;28;20213;-79
2023/09/12 12:56:57;;;;;;;10.77;8.65;;;;;;;;;;10440040;28;20515;-82
2023/09/12 13:01:58;;;;;;;11.43;8.50;;;;;;;;;;10443128;28;20029;-83
2023/09/12 13:06:59;;;;;;;8.75;7.28;;;;;;;;;;10443613;28;20039;-83
2023/09/12 13:12:00;;;;;;;8.90;7.57;;;;;;;;;;10449475;28;20029;-85
2023/09/12 13:17:01;;;;;;;9.50;7.80;;;;;;;;;;10438842;28;20042;-83
2023/09/12 13:22:02;;;;;;;11.70;8.77;;;;;;;;;;10450703;28;20056;-85
2023/09/12 13:27:35;;;;;;;10.73;8.57;;;;;;;;;;10451330;28;20084;-82
2023/09/12 13:32:36;;;;;;;11.63;8.77;;;;;;;;;;10449346;28;20068;-84
2023/09/12 13:37:37;;;;;;;10.60;8.07;;;;;;;;;;10448950;28;20491;-83
2023/09/12 13:42:38;;;;;;;11.10;7.78;;;;;;;;;;10448712;28;20035;-83
2023/09/12 13:47:41;;;;;;;10.45;8.27;;;;;;;;;;10436406;28;20049;-84
2023/09/12 13:52:42;;;;;;;10.20;7.72;;;;;;;;;;10448291;28;20032;-85
2023/09/12 13:57:43;;;;;;;10.98;7.97;;;;;;;;;;10448712;28;20041;-82
2023/09/12 14:02:44;;;;;;;12.68;9.20;;;;;;;;;;10440222;28;20541;-80
2023/09/12 14:07:45;;;;;;;9.55;8.13;;;;;;;;;;10446673;28;20401;-84
2023/09/12 14:12:47;;;;;;;9.05;7.85;;;;;;;;;;10443969;28;20033;-84
2023/09/12 14:17:48;;;;;;;9.13;7.50;;;;;;;;;;10434675;28;20045;-85
2023/09/12 14:22:49;;;;;;;21.58;8.30;;;;;;;;;;10434772;28;20073;-83
2023/09/12 14:27:50;;;;;;;10.73;8.30;;;;;;;;;;10433943;28;20120;-83
2023/09/12 14:32:51;;;;;;;9.38;7.05;;;;;;;;;;10447464;28;20032;-84
2023/09/12 14:37:52;;;;;;;10.90;7.80;;;;;;;;;;10436691;28;20513;-84
2023/09/12 14:42:53;;;;;;;10.48;7.57;;;;;;;;;;10444091;28;20038;-83
2023/09/12 14:47:55;;;;;;;8.52;7.63;;;;;;;;;;10422812;28;20120;-82
2023/09/12 14:52:56;;;;;;;7.50;6.70;;;;;;;;;;10436083;28;20045;-86
2023/09/12 15:03:39;;;;;;;9.07;7.75;;;;;;;;;;10446990;28;20036;-83
2023/09/12 15:08:40;;;;;;;10.07;7.90;;;;;;;;;;10442650;28;20469;-85
2023/09/12 15:13:41;;;;;;;9.90;8.05;;;;;;;;;;10443695;28;20033;-81
2023/09/12 15:18:42;;;;;;;8.70;7.00;;;;;;;;;;10430420;28;20062;-84
2023/09/12 15:24:05;;;;;;;11.27;7.63;;;;;;;;;;10445260;28;20352;-84
2023/09/12 15:29:25;;;;;;;9.10;8.10;;;;;;;;;;10447049;28;20032;-81
2023/09/12 15:34:26;;;;;;;11.18;8.27;;;;;;;;;;10445699;28;20032;-82
2023/09/12 15:39:50;;;;;;;13.65;8.48;;;;;;;;;;10446817;28;20075;-81
2023/09/12 15:44:52;;;;;;;;;;;;;;;;;;10424777;28;20112;-82
2023/09/12 15:49:52;;;;;;;10.93;7.85;;;;;;;;;;10430238;28;19913;-82
2023/09/12 15:54:54;;;;;;;8.68;7.78;;;;;;;;;;10444117;28;20105;-79
2023/09/12 15:59:55;;;;;;;8.32;7.53;;;;;;;;;;10445008;28;20028;-84
2023/09/12 16:04:56;;;;;;;10.25;8.13;;;;;;;;;;10424018;28;20017;-83
2023/09/12 16:09:57;;;;;;;10.05;8.70;;;;;;;;;;10438971;28;20037;-87
2023/09/12 16:14:58;;;;;;;10.48;8.60;;;;;;;;;;10442597;28;20037;-83
2023/09/12 16:19:59;;;;;;;9.93;8.38;;;;;;;;;;10442281;28;20384;-84
2023/09/12 16:25:00;;;;;;;12.10;9.43;;;;;;;;;;10445526;28;20058;-83
2023/09/12 16:30:07;;;;;;;12.15;8.43;;;;;;;;;;10444370;28;20025;-87
2023/09/12 16:35:08;;;;;;;11.80;9.15;;;;;;;;;;10446096;28;20033;-83
2023/09/12 16:40:09;;;;;;;12.40;9.32;;;;;;;;;;10443684;28;20039;-84
2023/09/12 16:45:11;;;;;;;12.55;9.30;;;;;;;;;;10430116;28;20037;-83
2023/09/12 16:50:11;;;;;;;10.85;9.07;;;;;;;;;;10430900;28;20595;-84
2023/09/12 16:55:12;;;;;;;13.13;10.35;;;;;;;;;;10439883;28;20043;-87
2023/09/12 17:00:14;;;;;;;13.02;10.07;;;;;;;;;;10440046;28;20035;-86
2023/09/12 17:05:15;;;;;;;16.42;10.25;;;;;;;;;;10436624;28;20033;-85
2023/09/12 17:10:16;;;;;;;13.93;10.77;;;;;;;;;;10439479;28;20082;-80
2023/09/12 17:15:18;;;;;;;13.90;10.77;;;;;;;;;;10437694;28;20507;-84
2023/09/12 17:20:19;;;;;;;15.45;10.20;;;;;;;;;;10443256;28;20059;-87
2023/09/12 17:25:20;;;;;;;16.85;11.50;;;;;;;;;;10441566;28;20533;-86
2023/09/12 17:30:22;;;;;;;16.35;11.85;;;;;;;;;;10441130;28;20036;-85
2023/09/12 17:35:25;;;;;;;17.08;12.27;;;;;;;;;;10441921;28;20045;-83
2023/09/12 17:40:26;;;;;;;18.33;12.45;;;;;;;;;;10431094;28;20045;-89
2023/09/12 17:45:27;;;;;;;17.73;12.48;;;;;;;;;;10428961;28;20025;-86
2023/09/12 17:50:29;;;;;;;17.42;12.07;;;;;;;;;;10441248;28;20859;-84
2023/09/12 17:55:30;;;;;;;17.38;13.73;;;;;;;;;;10443879;28;20036;-84
2023/09/12 18:00:31;;;;;;;18.77;14.10;;;;;;;;;;10446325;28;20035;-84
2023/09/12 18:05:32;;;;;;;16.92;11.18;;;;;;;;;;10450092;28;20104;-88
2023/09/12 18:10:33;;;;;;;15.63;11.07;;;;;;;;;;10433883;28;20116;-84
2023/09/12 18:15:34;;;;;;;13.93;11.25;;;;;;;;;;10444581;28;20736;-85
2023/09/12 18:20:35;;;;;;;20.55;14.25;;;;;;;;;;10445200;28;20036;-87
2023/09/12 18:25:36;;;;;;;15.52;12.05;;;;;;;;;;10449121;28;20496;-86
2023/09/12 18:30:37;;;;;;;18.50;13.05;;;;;;;;;;10448372;28;20029;-85
2023/09/12 18:35:38;;;;;;;13.98;11.18;;;;;;;;;;10446738;28;20048;-85
2023/09/12 18:40:39;;;;;;;22.05;16.83;;;;;;;;;;10449566;28;20043;-84
2023/09/12 18:45:41;;;;;;;21.60;16.02;;;;;;;;;;10447490;28;20031;-84
2023/09/12 18:50:43;;;;;;;17.20;12.43;;;;;;;;;;10448671;28;20369;-85
2023/09/12 18:55:47;;;;;;;18.58;12.90;;;;;;;;;;10447652;28;20029;-86
2023/09/12 19:00:48;;;;;;;25.47;18.20;;;;;;;;;;10441536;28;20066;-82
2023/09/12 19:05:49;;;;;;;21.83;15.98;;;;;;;;;;10439561;28;20021;-91
2023/09/12 19:10:51;;;;;;;32.55;21.13;;;;;;;;;;10443417;28;20468;-88
2023/09/12 19:15:52;;;;;;;24.48;18.98;;;;;;;;;;10442910;28;20126;-86
2023/09/12 19:20:53;;;;;;;21.00;15.85;;;;;;;;;;10444888;28;20029;-88
2023/09/12 19:25:54;;;;;;;21.38;15.98;;;;;;;;;;10445305;28;20060;-85
2023/09/12 19:30:55;;;;;;;27.20;19.05;;;;;;;;;;10440620;28;20139;-88
2023/09/12 19:35:56;;;;;;;40.13;26.48;;;;;;;;;;10439131;28;20140;-89
2023/09/12 19:40:58;;;;;;;25.92;17.92;;;;;;;;;;10443775;28;20055;-86
2023/09/12 19:46:02;;;;;;;23.52;17.05;;;;;;;;;;10443290;28;20064;-88
2023/09/12 19:51:03;;;;;;;24.83;18.15;;;;;;;;;;10440141;28;20033;-85
2023/09/12 19:56:04;;;;;;;23.67;16.70;;;;;;;;;;10429809;28;20040;-84
2023/09/12 20:01:06;;;;;;;23.20;16.80;;;;;;;;;;10436324;28;20028;-86
2023/09/12 20:06:07;;;;;;;22.85;16.17;;;;;;;;;;10435698;28;20077;-86
2023/09/12 20:11:08;;;;;;;23.83;17.00;;;;;;;;;;10443701;28;20044;-84
2023/09/12 20:16:16;;;;;;;25.45;17.02;;;;;;;;;;10442241;28;20037;-85
2023/09/12 20:21:17;;;;;;;23.08;15.93;;;;;;;;;;10433164;28;20029;-89
2023/09/12 20:26:18;;;;;;;23.35;16.02;;;;;;;;;;10443654;28;20245;-88
2023/09/12 20:31:19;;;;;;;21.13;15.05;;;;;;;;;;10442618;28;20025;-83
2023/09/12 20:36:21;;;;;;;22.95;14.98;;;;;;;;;;10442127;28;20455;-89
2023/09/12 20:41:22;;;;;;;22.55;14.73;;;;;;;;;;10441281;28;20460;-86
2023/09/12 20:46:25;;;;;;;19.15;14.18;;;;;;;;;;10441021;28;20068;-86
2023/09/12 20:51:26;;;;;;;23.98;15.88;;;;;;;;;;10442532;28;20033;-86
2023/09/12 20:56:27;;;;;;;17.63;13.88;;;;;;;;;;10443476;28;20052;-86
2023/09/12 21:01:28;;;;;;;20.23;14.30;;;;;;;;;;10440067;28;20679;-88
2023/09/12 21:06:29;;;;;;;19.48;14.52;;;;;;;;;;10441246;28;20033;-85
2023/09/12 21:11:30;;;;;;;19.83;14.95;;;;;;;;;;10436282;28;20037;-88
2023/09/12 21:16:31;;;;;;;22.13;15.88;;;;;;;;;;10441792;28;20037;-85
2023/09/12 21:21:32;;;;;;;18.85;14.25;;;;;;;;;;10442022;28;20032;-85
2023/09/12 21:26:33;;;;;;;19.90;14.38;;;;;;;;;;10440736;28;20063;-89
2023/09/12 21:31:35;;;;;;;19.85;14.35;;;;;;;;;;10444970;28;20052;-86
2023/09/12 21:36:36;;;;;;;25.45;17.05;;;;;;;;;;10449189;28;20037;-85
2023/09/12 21:41:37;;;;;;;16.88;13.15;;;;;;;;;;10449490;28;20404;-86
2023/09/12 21:46:38;;;;;;;20.23;14.60;;;;;;;;;;10448998;28;20037;-85
2023/09/12 21:51:39;;;;;;;19.38;14.98;;;;;;;;;;10448648;28;20044;-87
2023/09/12 21:56:40;;;;;;;26.33;18.40;;;;;;;;;;10447092;28;21565;-89
2023/09/12 22:01:41;;;;;;;23.33;16.83;;;;;;;;;;10444530;28;20033;-85
2023/09/12 22:06:43;;;;;;;24.23;18.92;;;;;;;;;;10447212;28;20488;-86
2023/09/12 22:11:44;;;;;;;30.30;21.15;;;;;;;;;;10449288;28;20094;-85
2023/09/12 22:16:45;;;;;;;25.02;19.48;;;;;;;;;;10444585;28;20119;-86
2023/09/12 22:21:46;;;;;;;22.75;17.00;;;;;;;;;;10433574;28;20032;-86
2023/09/12 22:26:47;;;;;;;25.27;19.02;;;;;;;;;;10447692;28;20047;-84
2023/09/12 22:31:48;;;;;;;28.45;20.20;;;;;;;;;;10447658;28;20037;-86
2023/09/12 22:36:49;;;;;;;23.67;18.73;;;;;;;;;;10446621;28;20063;-86
2023/09/12 22:41:50;;;;;;;22.80;17.83;;;;;;;;;;10445941;28;20035;-86
2023/09/12 22:46:51;;;;;;;24.60;16.75;;;;;;;;;;10447410;28;20029;-89
2023/09/12 22:51:53;;;;;;;21.83;16.80;;;;;;;;;;10446866;28;20471;-86
2023/09/12 22:56:54;;;;;;;24.25;18.30;;;;;;;;;;10445561;28;20029;-86
2023/09/12 23:01:55;;;;;;;20.25;15.93;;;;;;;;;;10446312;28;20121;-88
2023/09/12 23:06:56;;;;;;;26.30;18.52;;;;;;;;;;10446069;28;20544;-86
2023/09/12 23:11:58;;;;;;;27.50;20.52;;;;;;;;;;10446221;28;20033;-89
2023/09/12 23:16:59;;;;;;;29.08;21.75;;;;;;;;;;10445574;28;20029;-88
2023/09/12 23:22:00;;;;;;;24.23;17.25;;;;;;;;;;10446048;28;20029;-89
2023/09/12 23:27:03;;;;;;;21.30;15.98;;;;;;;;;;10445789;28;20114;-86
2023/09/12 23:32:04;;;;;;;22.98;17.40;;;;;;;;;;10445264;28;20033;-86
2023/09/12 23:37:05;;;;;;;23.70;17.17;;;;;;;;;;10444928;28;20045;-86
2023/09/12 23:42:06;;;;;;;24.08;17.95;;;;;;;;;;10443933;28;20434;-85
2023/09/12 23:47:07;;;;;;;21.38;17.13;;;;;;;;;;10442981;28;20083;-86
2023/09/12 23:52:09;;;;;;;26.42;19.63;;;;;;;;;;10444550;28;20587;-87
2023/09/12 23:57:10;;;;;;;22.00;17.02;;;;;;;;;;10444320;28;20052;-87
